sensor_id;sensor_type;location;lat;lon;timestamp;pressure;altitude;pressure_sealevel;temperature;humidity
9141;BME280;46330;50.822;7.126;2023-05-08T00:01:44;101316.28;;;15.14;100.00
9141;BME280;46330;50.822;7.126;2023-05-08T00:04:12;101304.00;;;15.13;100.00
9141;BME280;46330;50.822;7.126;2023-05-08T00:06:41;101307.75;;;15.06;100.00
9141;BME280;46330;50.822;7.126;2023-05-08T00:09:10;101311.53;;;14.96;100.00
9141;BME280;46330;50.822;7.126;2023-05-08T00:11:38;101318.63;;;14.92;100.00
9141;BME280;46330;50.822;7.126;2023-05-08T00:14:06;101322.13;;;14.93;100.00
9141;BME280;46330;50.822;7.126;2023-05-08T00:16:34;101321.28;;;14.92;100.00
9141;BME280;46330;50.822;7.126;2023-05-08T00:19:03;101323.19;;;14.86;100.00
9141;BME280;46330;50.822;7.126;2023-05-08T00:21:30;101324.97;;;14.85;100.00
9141;BME280;46330;50.822;7.126;2023-05-08T00:23:58;101326.69;;;14.86;100.00
9141;BME280;46330;50.822;7.126;2023-05-08T00:26:27;101323.16;;;14.87;100.00
9141;BME280;46330;50.822;7.126;2023-05-08T00:28:56;101324.03;;;14.88;100.00
9141;BME280;46330;50.822;7.126;2023-05-08T00:31:24;101325.81;;;14.87;100.00
9141;BME280;46330;50.822;7.126;2023-05-08T00:33:52;101322.31;;;14.85;100.00
9141;BME280;46330;50.822;7.126;2023-05-08T00:36:20;101327.50;;;14.88;100.00
9141;BME280;46330;50.822;7.126;2023-05-08T00:38:48;101327.59;;;14.85;100.00
9141;BME280;46330;50.822;7.126;2023-05-08T00:41:15;101325.81;;;14.86;100.00
9141;BME280;46330;50.822;7.126;2023-05-08T00:43:45;101331.03;;;14.89;100.00
9141;BME280;46330;50.822;7.126;2023-05-08T00:46:13;101332.69;;;14.93;100.00
9141;BME280;46330;50.822;7.126;2023-05-08T00:48:41;101332.84;;;14.85;100.00
9141;BME280;46330;50.822;7.126;2023-05-08T00:51:10;101333.81;;;14.83;100.00
9141;BME280;46330;50.822;7.126;2023-05-08T00:53:41;101333.78;;;14.84;100.00
9141;BME280;46330;50.822;7.126;2023-05-08T00:56:13;101340.81;;;14.84;100.00
9141;BME280;46330;50.822;7.126;2023-05-08T00:58:42;101335.50;;;14.85;100.00
9141;BME280;46330;50.822;7.126;2023-05-08T01:01:13;101346.91;;;14.86;100.00
9141;BME280;46330;50.822;7.126;2023-05-08T01:03:42;101350.38;;;14.88;100.00
9141;BME280;46330;50.822;7.126;2023-05-08T01:06:10;101345.03;;;14.91;100.00
9141;BME280;46330;50.822;7.126;2023-05-08T01:08:38;101344.16;;;14.90;100.00
9141;BME280;46330;50.822;7.126;2023-05-08T01:11:11;101352.00;;;14.92;100.00
9141;BME280;46330;50.822;7.126;2023-05-08T01:13:49;101347.66;;;14.91;100.00
9141;BME280;46330;50.822;7.126;2023-05-08T01:16:28;101345.13;;;14.86;100.00
9141;BME280;46330;50.822;7.126;2023-05-08T01:19:01;101346.88;;;14.87;100.00
9141;BME280;46330;50.822;7.126;2023-05-08T01:21:35;101347.81;;;14.85;100.00
9141;BME280;46330;50.822;7.126;2023-05-08T01:27:29;101344.34;;;14.83;100.00
9141;BME280;46330;50.822;7.126;2023-05-08T01:30:35;101342.91;;;14.71;100.00
9141;BME280;46330;50.822;7.126;2023-05-08T01:33:16;101343.13;;;14.62;100.00
9141;BME280;46330;50.822;7.126;2023-05-08T01:35:49;101344.97;;;14.59;100.00
9141;BME280;46330;50.822;7.126;2023-05-08T01:38:26;101342.34;;;14.59;100.00
9141;BME280;46330;50.822;7.126;2023-05-08T01:41:02;101343.50;;;14.47;100.00
9141;BME280;46330;50.822;7.126;2023-05-08T01:43:40;101346.28;;;14.41;100.00
9141;BME280;46330;50.822;7.126;2023-05-08T01:46:15;101342.78;;;14.39;100.00
9141;BME280;46330;50.822;7.126;2023-05-08T01:48:49;101340.34;;;14.31;100.00
9141;BME280;46330;50.822;7.126;2023-05-08T01:51:20;101347.31;;;14.32;100.00
9141;BME280;46330;50.822;7.126;2023-05-08T01:53:51;101349.19;;;14.27;100.00
9141;BME280;46330;50.822;7.126;2023-05-08T01:56:21;101353.69;;;14.22;100.00
9141;BME280;46330;50.822;7.126;2023-05-08T01:58:52;101346.69;;;14.23;100.00
9141;BME280;46330;50.822;7.126;2023-05-08T02:01:23;101345.75;;;14.24;100.00
9141;BME280;46330;50.822;7.126;2023-05-08T02:03:56;101354.72;;;14.15;100.00
9141;BME280;46330;50.822;7.126;2023-05-08T02:06:26;101349.53;;;14.12;100.00
9141;BME280;46330;50.822;7.126;2023-05-08T02:08:55;101350.50;;;14.08;100.00
9141;BME280;46330;50.822;7.126;2023-05-08T02:11:24;101349.88;;;13.97;100.00
9141;BME280;46330;50.822;7.126;2023-05-08T02:13:52;101352.44;;;14.00;100.00
9141;BME280;46330;50.822;7.126;2023-05-08T02:16:21;101355.81;;;14.07;100.00
9141;BME280;46330;50.822;7.126;2023-05-08T02:18:50;101352.50;;;13.97;100.00
9141;BME280;46330;50.822;7.126;2023-05-08T02:21:22;101358.50;;;14.04;100.00
9141;BME280;46330;50.822;7.126;2023-05-08T02:23:51;101361.22;;;14.00;100.00
9141;BME280;46330;50.822;7.126;2023-05-08T02:26:21;101364.69;;;14.01;100.00
9141;BME280;46330;50.822;7.126;2023-05-08T02:28:51;101363.91;;;13.97;100.00
9141;BME280;46330;50.822;7.126;2023-05-08T02:31:20;101356.91;;;13.96;100.00
9141;BME280;46330;50.822;7.126;2023-05-08T02:33:49;101361.34;;;13.94;100.00
9141;BME280;46330;50.822;7.126;2023-05-08T02:36:18;101361.34;;;13.93;100.00
9141;BME280;46330;50.822;7.126;2023-05-08T02:38:50;101370.06;;;13.96;100.00
9141;BME280;46330;50.822;7.126;2023-05-08T02:41:22;101367.44;;;13.95;100.00
9141;BME280;46330;50.822;7.126;2023-05-08T02:43:51;101371.00;;;13.92;100.00
9141;BME280;46330;50.822;7.126;2023-05-08T02:46:24;101372.06;;;13.85;100.00
9141;BME280;46330;50.822;7.126;2023-05-08T02:48:57;101372.91;;;13.86;100.00
9141;BME280;46330;50.822;7.126;2023-05-08T02:51:36;101373.81;;;13.85;100.00
9141;BME280;46330;50.822;7.126;2023-05-08T02:54:09;101373.88;;;13.82;100.00
9141;BME280;46330;50.822;7.126;2023-05-08T02:56:48;101376.53;;;13.80;100.00
9141;BME280;46330;50.822;7.126;2023-05-08T02:59:22;101381.03;;;13.74;100.00
9141;BME280;46330;50.822;7.126;2023-05-08T03:01:58;101367.81;;;13.78;100.00
9141;BME280;46330;50.822;7.126;2023-05-08T03:04:33;101374.69;;;13.85;100.00
9141;BME280;46330;50.822;7.126;2023-05-08T03:07:03;101373.97;;;13.77;100.00
9141;BME280;46330;50.822;7.126;2023-05-08T03:09:38;101375.72;;;13.78;100.00
9141;BME280;46330;50.822;7.126;2023-05-08T03:12:11;101377.34;;;13.84;100.00
9141;BME280;46330;50.822;7.126;2023-05-08T03:14:44;101383.66;;;13.75;100.00
9141;BME280;46330;50.822;7.126;2023-05-08T03:17:15;101382.84;;;13.72;100.00
9141;BME280;46330;50.822;7.126;2023-05-08T03:19:46;101382.78;;;13.75;100.00
9141;BME280;46330;50.822;7.126;2023-05-08T03:22:18;101373.94;;;13.79;100.00
9141;BME280;46330;50.822;7.126;2023-05-08T03:24:50;101383.47;;;13.84;100.00
9141;BME280;46330;50.822;7.126;2023-05-08T03:27:22;101379.22;;;13.79;100.00
9141;BME280;46330;50.822;7.126;2023-05-08T03:29:51;101382.75;;;13.76;100.00
9141;BME280;46330;50.822;7.126;2023-05-08T03:32:20;101386.28;;;13.75;100.00
9141;BME280;46330;50.822;7.126;2023-05-08T03:34:51;101374.84;;;13.76;100.00
9141;BME280;46330;50.822;7.126;2023-05-08T03:37:21;101377.66;;;13.67;100.00
9141;BME280;46330;50.822;7.126;2023-05-08T03:39:51;101375.97;;;13.65;100.00
9141;BME280;46330;50.822;7.126;2023-05-08T03:42:19;101380.31;;;13.67;100.00
9141;BME280;46330;50.822;7.126;2023-05-08T03:44:49;101374.34;;;13.58;100.00
9141;BME280;46330;50.822;7.126;2023-05-08T03:47:18;101374.47;;;13.53;100.00
9141;BME280;46330;50.822;7.126;2023-05-08T03:49:48;101364.81;;;13.54;100.00
9141;BME280;46330;50.822;7.126;2023-05-08T03:52:17;101372.72;;;13.52;100.00
9141;BME280;46330;50.822;7.126;2023-05-08T03:54:45;101376.25;;;13.51;100.00
9141;BME280;46330;50.822;7.126;2023-05-08T03:57:14;101368.41;;;13.50;100.00
9141;BME280;46330;50.822;7.126;2023-05-08T03:59:50;101374.66;;;13.42;100.00
9141;BME280;46330;50.822;7.126;2023-05-08T04:02:26;101379.97;;;13.39;100.00
9141;BME280;46330;50.822;7.126;2023-05-08T04:05:01;101386.09;;;13.40;100.00
9141;BME280;46330;50.822;7.126;2023-05-08T04:07:37;101385.38;;;13.32;100.00
9141;BME280;46330;50.822;7.126;2023-05-08T04:10:14;101386.22;;;13.34;100.00
9141;BME280;46330;50.822;7.126;2023-05-08T04:12:51;101378.44;;;13.28;100.00
9141;BME280;46330;50.822;7.126;2023-05-08T04:15:25;101382.78;;;13.30;100.00
9141;BME280;46330;50.822;7.126;2023-05-08T04:17:56;101388.94;;;13.29;100.00
9141;BME280;46330;50.822;7.126;2023-05-08T04:20:26;101378.44;;;13.28;100.00
9141;BME280;46330;50.822;7.126;2023-05-08T04:22:57;101378.44;;;13.28;100.00
9141;BME280;46330;50.822;7.126;2023-05-08T04:25:27;101376.75;;;13.24;100.00
9141;BME280;46330;50.822;7.126;2023-05-08T04:27:58;101375.88;;;13.25;100.00
9141;BME280;46330;50.822;7.126;2023-05-08T04:30:28;101375.00;;;13.26;100.00
9141;BME280;46330;50.822;7.126;2023-05-08T04:32:58;101373.38;;;13.17;100.00
9141;BME280;46330;50.822;7.126;2023-05-08T04:35:29;101381.31;;;13.14;100.00
9141;BME280;46330;50.822;7.126;2023-05-08T04:37:57;101389.25;;;13.11;100.00
9141;BME280;46330;50.822;7.126;2023-05-08T04:40:25;101390.13;;;13.13;100.00
9141;BME280;46330;50.822;7.126;2023-05-08T04:42:54;101389.13;;;13.19;100.00
9141;BME280;46330;50.822;7.126;2023-05-08T04:45:24;101390.13;;;13.13;100.00
9141;BME280;46330;50.822;7.126;2023-05-08T04:47:52;101386.63;;;13.11;100.00
9141;BME280;46330;50.822;7.126;2023-05-08T04:50:21;101389.25;;;13.13;100.00
9141;BME280;46330;50.822;7.126;2023-05-08T04:52:49;101385.81;;;13.06;100.00
9141;BME280;46330;50.822;7.126;2023-05-08T04:55:18;101386.75;;;13.04;100.00
9141;BME280;46330;50.822;7.126;2023-05-08T04:57:46;101384.06;;;13.08;100.00
9141;BME280;46330;50.822;7.126;2023-05-08T05:00:15;101389.31;;;13.07;100.00
9141;BME280;46330;50.822;7.126;2023-05-08T05:02:46;101397.19;;;13.07;100.00
9141;BME280;46330;50.822;7.126;2023-05-08T05:05:14;101396.28;;;13.08;100.00
9141;BME280;46330;50.822;7.126;2023-05-08T05:07:42;101406.84;;;13.05;100.00
9141;BME280;46330;50.822;7.126;2023-05-08T05:10:10;101405.00;;;13.11;100.00
9141;BME280;46330;50.822;7.126;2023-05-08T05:12:39;101414.72;;;13.05;100.00
9141;BME280;46330;50.822;7.126;2023-05-08T05:15:08;101416.38;;;13.12;100.00
9141;BME280;46330;50.822;7.126;2023-05-08T05:17:37;101414.69;;;13.09;100.00
9141;BME280;46330;50.822;7.126;2023-05-08T05:20:08;101412.09;;;13.05;100.00
9141;BME280;46330;50.822;7.126;2023-05-08T05:22:36;101415.44;;;13.16;100.00
9141;BME280;46330;50.822;7.126;2023-05-08T05:25:05;101424.34;;;13.06;100.00
9141;BME280;46330;50.822;7.126;2023-05-08T05:27:33;101422.50;;;13.12;100.00
9141;BME280;46330;50.822;7.126;2023-05-08T05:30:04;101419.94;;;13.11;100.00
9141;BME280;46330;50.822;7.126;2023-05-08T05:32:33;101426.03;;;13.11;100.00
9141;BME280;46330;50.822;7.126;2023-05-08T05:35:01;101425.13;;;13.14;100.00
9141;BME280;46330;50.822;7.126;2023-05-08T05:37:30;101429.47;;;13.15;100.00
9141;BME280;46330;50.822;7.126;2023-05-08T05:39:58;101431.16;;;13.19;100.00
9141;BME280;46330;50.822;7.126;2023-05-08T05:42:26;101432.09;;;13.15;100.00
9141;BME280;46330;50.822;7.126;2023-05-08T05:44:54;101433.84;;;13.14;100.00
9141;BME280;46330;50.822;7.126;2023-05-08T05:47:22;101439.91;;;13.18;100.00
9141;BME280;46330;50.822;7.126;2023-05-08T05:49:51;101442.53;;;13.19;100.00
9141;BME280;46330;50.822;7.126;2023-05-08T05:52:19;101441.63;;;13.22;100.00
9141;BME280;46330;50.822;7.126;2023-05-08T05:54:48;101442.53;;;13.19;100.00
9141;BME280;46330;50.822;7.126;2023-05-08T05:57:16;101439.81;;;13.25;100.00
9141;BME280;46330;50.822;7.126;2023-05-08T05:59:45;101445.31;;;13.10;100.00
9141;BME280;46330;50.822;7.126;2023-05-08T06:02:12;101448.72;;;13.15;100.00
9141;BME280;46330;50.822;7.126;2023-05-08T06:04:44;101451.03;;;13.33;100.00
9141;BME280;46330;50.822;7.126;2023-05-08T06:07:13;101447.66;;;13.27;100.00
9141;BME280;46330;50.822;7.126;2023-05-08T06:09:41;101451.09;;;13.32;100.00
9141;BME280;46330;50.822;7.126;2023-05-08T06:12:10;101449.56;;;13.17;100.00
9141;BME280;46330;50.822;7.126;2023-05-08T06:14:39;101453.16;;;13.13;100.00
9141;BME280;46330;50.822;7.126;2023-05-08T06:17:07;101457.31;;;13.25;100.00
9141;BME280;46330;50.822;7.126;2023-05-08T06:19:36;101450.25;;;13.28;100.00
9141;BME280;46330;50.822;7.126;2023-05-08T06:22:04;101459.78;;;13.35;100.00
9141;BME280;46330;50.822;7.126;2023-05-08T06:24:32;101457.94;;;13.40;100.00
9141;BME280;46330;50.822;7.126;2023-05-08T06:27:01;101458.56;;;13.53;100.00
9141;BME280;46330;50.822;7.126;2023-05-08T06:29:30;101458.41;;;13.62;100.00
9141;BME280;46330;50.822;7.126;2023-05-08T06:31:58;101464.59;;;13.58;100.00
9141;BME280;46330;50.822;7.126;2023-05-08T06:34:25;101466.56;;;13.47;100.00
9141;BME280;46330;50.822;7.126;2023-05-08T06:36:53;101464.66;;;13.55;100.00
9141;BME280;46330;50.822;7.126;2023-05-08T06:39:21;101467.28;;;13.57;100.00
9141;BME280;46330;50.822;7.126;2023-05-08T06:41:49;101460.09;;;13.66;100.00
9141;BME280;46330;50.822;7.126;2023-05-08T06:44:27;101459.94;;;13.74;100.00
9141;BME280;46330;50.822;7.126;2023-05-08T06:46:56;101464.34;;;13.72;100.00
9141;BME280;46330;50.822;7.126;2023-05-08T06:49:24;101466.16;;;13.68;100.00
9141;BME280;46330;50.822;7.126;2023-05-08T06:51:52;101460.03;;;13.68;100.00
9141;BME280;46330;50.822;7.126;2023-05-08T06:54:23;101464.25;;;13.76;100.00
9141;BME280;46330;50.822;7.126;2023-05-08T06:56:51;101464.38;;;13.70;100.00
9141;BME280;46330;50.822;7.126;2023-05-08T06:59:19;101460.03;;;13.68;100.00
9141;BME280;46330;50.822;7.126;2023-05-08T07:01:48;101466.00;;;13.77;100.00
9141;BME280;46330;50.822;7.126;2023-05-08T07:04:18;101465.09;;;13.78;100.00
9141;BME280;46330;50.822;7.126;2023-05-08T07:06:45;101461.41;;;13.88;100.00
9141;BME280;46330;50.822;7.126;2023-05-08T07:09:13;101459.63;;;13.89;100.00
9141;BME280;46330;50.822;7.126;2023-05-08T07:11:44;101466.19;;;14.13;100.00
9141;BME280;46330;50.822;7.126;2023-05-08T07:14:12;101461.53;;;14.24;100.00
9141;BME280;46330;50.822;7.126;2023-05-08T07:16:40;101457.53;;;14.06;100.00
9141;BME280;46330;50.822;7.126;2023-05-08T07:19:08;101467.94;;;14.11;100.00
9141;BME280;46330;50.822;7.126;2023-05-08T07:21:37;101470.38;;;14.20;100.00
9141;BME280;46330;50.822;7.126;2023-05-08T07:24:06;101467.09;;;14.10;100.00
9141;BME280;46330;50.822;7.126;2023-05-08T07:26:34;101467.19;;;14.07;100.00
9141;BME280;46330;50.822;7.126;2023-05-08T07:29:01;101463.59;;;14.10;100.00
9141;BME280;46330;50.822;7.126;2023-05-08T07:31:29;101461.28;;;13.94;100.00
9141;BME280;46330;50.822;7.126;2023-05-08T07:33:57;101459.03;;;14.19;100.00
9141;BME280;46330;50.822;7.126;2023-05-08T07:36:25;101453.28;;;14.42;100.00
9141;BME280;46330;50.822;7.126;2023-05-08T07:38:55;101471.81;;;14.37;100.00
9141;BME280;46330;50.822;7.126;2023-05-08T07:41:23;101472.50;;;14.47;100.00
9141;BME280;46330;50.822;7.126;2023-05-08T07:43:52;101474.91;;;14.56;100.00
9141;BME280;46330;50.822;7.126;2023-05-08T07:46:20;101481.91;;;14.57;100.00
9141;BME280;46330;50.822;7.126;2023-05-08T07:48:48;101477.47;;;14.59;100.00
9141;BME280;46330;50.822;7.126;2023-05-08T07:51:16;101476.53;;;14.63;100.00
9141;BME280;46330;50.822;7.126;2023-05-08T07:53:44;101489.28;;;14.80;100.00
9141;BME280;46330;50.822;7.126;2023-05-08T07:56:15;101495.50;;;14.76;100.00
9141;BME280;46330;50.822;7.126;2023-05-08T07:58:43;101485.09;;;14.71;100.00
9141;BME280;46330;50.822;7.126;2023-05-08T08:01:11;101487.88;;;14.64;100.00
9141;BME280;46330;50.822;7.126;2023-05-08T08:03:39;101474.34;;;14.80;100.00
9141;BME280;46330;50.822;7.126;2023-05-08T08:06:07;101477.19;;;15.08;100.00
9141;BME280;46330;50.822;7.126;2023-05-08T08:08:35;101475.19;;;15.18;100.00
9141;BME280;46330;50.822;7.126;2023-05-08T08:11:03;101478.94;;;15.09;100.00
9141;BME280;46330;50.822;7.126;2023-05-08T08:13:32;101480.69;;;15.08;100.00
9141;BME280;46330;50.822;7.126;2023-05-08T08:16:00;101489.66;;;15.01;100.00
9141;BME280;46330;50.822;7.126;2023-05-08T08:18:29;101483.69;;;15.29;100.00
9141;BME280;46330;50.822;7.126;2023-05-08T08:21:00;101493.06;;;15.06;100.00
9141;BME280;46330;50.822;7.126;2023-05-08T08:23:28;101490.44;;;15.06;100.00
9141;BME280;46330;50.822;7.126;2023-05-08T08:25:56;101489.91;;;14.91;100.00
9141;BME280;46330;50.822;7.126;2023-05-08T08:28:25;101495.69;;;15.06;100.00
9141;BME280;46330;50.822;7.126;2023-05-08T08:30:54;101495.25;;;15.25;100.00
9141;BME280;46330;50.822;7.126;2023-05-08T08:33:22;101493.56;;;15.22;100.00
9141;BME280;46330;50.822;7.126;2023-05-08T08:35:50;101498.97;;;15.16;100.00
9141;BME280;46330;50.822;7.126;2023-05-08T08:38:18;101494.91;;;15.01;100.00
9141;BME280;46330;50.822;7.126;2023-05-08T08:40:46;101496.38;;;15.13;100.00
9141;BME280;46330;50.822;7.126;2023-05-08T08:43:14;101496.50;;;15.08;100.00
9141;BME280;46330;50.822;7.126;2023-05-08T08:45:42;101485.47;;;14.93;100.00
9141;BME280;46330;50.822;7.126;2023-05-08T08:48:11;101487.94;;;15.00;100.00
9141;BME280;46330;50.822;7.126;2023-05-08T08:50:44;101489.41;;;15.11;100.00
9141;BME280;46330;50.822;7.126;2023-05-08T08:53:20;101490.28;;;15.13;100.00
9141;BME280;46330;50.822;7.126;2023-05-08T08:55:51;101496.16;;;14.87;100.00
9141;BME280;46330;50.822;7.126;2023-05-08T08:58:30;101491.81;;;14.84;100.00
9141;BME280;46330;50.822;7.126;2023-05-08T09:01:04;101493.47;;;14.88;100.00
9141;BME280;46330;50.822;7.126;2023-05-08T09:03:34;101485.72;;;14.82;100.00
9141;BME280;46330;50.822;7.126;2023-05-08T09:06:03;101488.91;;;14.96;100.00
9141;BME280;46330;50.822;7.126;2023-05-08T09:08:31;101483.72;;;14.93;100.00
9141;BME280;46330;50.822;7.126;2023-05-08T09:11:01;101488.47;;;14.78;100.00
9141;BME280;46330;50.822;7.126;2023-05-08T09:13:29;101487.56;;;14.79;100.00
9141;BME280;46330;50.822;7.126;2023-05-08T09:15:57;101484.88;;;14.80;100.00
9141;BME280;46330;50.822;7.126;2023-05-08T09:18:26;101496.38;;;14.78;100.00
9141;BME280;46330;50.822;7.126;2023-05-08T09:20:55;101494.69;;;14.75;100.00
9141;BME280;46330;50.822;7.126;2023-05-08T09:23:23;101493.59;;;14.84;100.00
9141;BME280;46330;50.822;7.126;2023-05-08T09:25:52;101488.00;;;14.97;100.00
9141;BME280;46330;50.822;7.126;2023-05-08T09:28:21;101495.19;;;14.91;100.00
9141;BME280;46330;50.822;7.126;2023-05-08T09:30:51;101489.78;;;14.97;100.00
9141;BME280;46330;50.822;7.126;2023-05-08T09:33:19;101498.25;;;15.10;100.00
9141;BME280;46330;50.822;7.126;2023-05-08T09:35:48;101489.50;;;15.07;100.00
9141;BME280;46330;50.822;7.126;2023-05-08T09:38:41;101492.84;;;15.16;100.00
9141;BME280;46330;50.822;7.126;2023-05-08T09:41:11;101491.75;;;15.23;100.00
9141;BME280;46330;50.822;7.126;2023-05-08T09:43:41;101489.09;;;15.24;100.00
9141;BME280;46330;50.822;7.126;2023-05-08T09:46:21;101502.50;;;15.15;100.00
9141;BME280;46330;50.822;7.126;2023-05-08T09:48:51;101502.22;;;15.26;100.00
9141;BME280;46330;50.822;7.126;2023-05-08T09:51:19;101492.25;;;15.38;100.00
9141;BME280;46330;50.822;7.126;2023-05-08T09:53:50;101490.75;;;15.28;100.00
9141;BME280;46330;50.822;7.126;2023-05-08T09:56:33;101504.38;;;15.10;100.00
9141;BME280;46330;50.822;7.126;2023-05-08T09:59:03;101507.94;;;15.09;100.00
9141;BME280;46330;50.822;7.126;2023-05-08T10:01:33;101508.09;;;15.01;100.00
9141;BME280;46330;50.822;7.126;2023-05-08T10:04:02;101506.47;;;14.96;100.00
9141;BME280;46330;50.822;7.126;2023-05-08T10:06:31;101500.25;;;14.98;100.00
9141;BME280;46330;50.822;7.126;2023-05-08T10:09:09;101503.25;;;14.83;100.00
9141;BME280;46330;50.822;7.126;2023-05-08T10:11:37;101504.06;;;14.85;100.00
9141;BME280;46330;50.822;7.126;2023-05-08T10:14:06;101505.03;;;14.83;100.00
9141;BME280;46330;50.822;7.126;2023-05-08T10:16:40;101503.84;;;14.94;100.00
9141;BME280;46330;50.822;7.126;2023-05-08T10:19:12;101511.75;;;14.94;100.00
9141;BME280;46330;50.822;7.126;2023-05-08T10:21:43;101503.69;;;15.03;100.00
9141;BME280;46330;50.822;7.126;2023-05-08T10:24:15;101506.31;;;15.02;100.00
9141;BME280;46330;50.822;7.126;2023-05-08T10:26:51;101506.31;;;15.02;100.00
9141;BME280;46330;50.822;7.126;2023-05-08T10:29:39;101506.41;;;14.99;100.00
9141;BME280;46330;50.822;7.126;2023-05-08T10:32:09;101501.50;;;14.84;100.00
9141;BME280;46330;50.822;7.126;2023-05-08T10:34:39;101508.66;;;14.79;100.00
9141;BME280;46330;50.822;7.126;2023-05-08T10:37:08;101504.66;;;14.98;100.00
9141;BME280;46330;50.822;7.126;2023-05-08T10:39:39;101510.66;;;15.04;100.00
9141;BME280;46330;50.822;7.126;2023-05-08T10:42:09;101501.13;;;14.61;100.00
9141;BME280;46330;50.822;7.126;2023-05-08T10:44:37;101492.03;;;14.75;100.00
9141;BME280;46330;50.822;7.126;2023-05-08T10:47:13;101490.47;;;14.67;100.00
9141;BME280;46330;50.822;7.126;2023-05-08T10:49:48;101495.03;;;14.60;100.00
9141;BME280;46330;50.822;7.126;2023-05-08T10:52:23;101493.16;;;14.64;100.00
9141;BME280;46330;50.822;7.126;2023-05-08T10:55:11;101487.34;;;14.49;100.00
9141;BME280;46330;50.822;7.126;2023-05-08T10:58:01;101492.69;;;14.45;100.00
9141;BME280;46330;50.822;7.126;2023-05-08T11:00:31;101491.31;;;14.69;100.00
9141;BME280;46330;50.822;7.126;2023-05-08T11:03:05;101484.38;;;14.65;100.00
9141;BME280;46330;50.822;7.126;2023-05-08T11:05:50;101480.56;;;14.78;100.00
9141;BME280;46330;50.822;7.126;2023-05-08T11:08:20;101490.13;;;14.82;100.00
9141;BME280;46330;50.822;7.126;2023-05-08T11:11:00;101481.91;;;14.95;100.00
9141;BME280;46330;50.822;7.126;2023-05-08T11:13:33;101481.53;;;15.11;100.00
9141;BME280;46330;50.822;7.126;2023-05-08T11:16:01;101482.53;;;15.06;100.00
9141;BME280;46330;50.822;7.126;2023-05-08T11:18:32;101486.47;;;15.23;100.00
9141;BME280;46330;50.822;7.126;2023-05-08T11:21:19;101478.50;;;15.26;100.00
9141;BME280;46330;50.822;7.126;2023-05-08T11:23:55;101477.19;;;15.08;100.00
9141;BME280;46330;50.822;7.126;2023-05-08T11:26:37;101476.38;;;15.06;100.00
9141;BME280;46330;50.822;7.126;2023-05-08T11:29:15;101475.44;;;15.42;100.00
9141;BME280;46330;50.822;7.126;2023-05-08T11:31:50;101469.91;;;15.19;100.00
9141;BME280;46330;50.822;7.126;2023-05-08T11:37:01;101474.00;;;15.31;100.00
9141;BME280;46330;50.822;7.126;2023-05-08T11:39:29;101475.94;;;15.59;100.00
9141;BME280;46330;50.822;7.126;2023-05-08T11:45:03;101471.28;;;15.69;100.00
9141;BME280;46330;50.822;7.126;2023-05-08T11:47:37;101462.31;;;15.75;100.00
9141;BME280;46330;50.822;7.126;2023-05-08T11:50:07;101473.91;;;15.69;100.00
9141;BME280;46330;50.822;7.126;2023-05-08T11:52:37;101455.53;;;15.97;100.00
9141;BME280;46330;50.822;7.126;2023-05-08T11:55:07;101456.97;;;16.07;100.00
9141;BME280;46330;50.822;7.126;2023-05-08T11:57:35;101452.91;;;16.26;100.00
9141;BME280;46330;50.822;7.126;2023-05-08T12:00:06;101452.00;;;16.27;98.68
9141;BME280;46330;50.822;7.126;2023-05-08T12:02:37;101445.06;;;16.23;98.86
9141;BME280;46330;50.822;7.126;2023-05-08T12:05:06;101446.72;;;16.56;98.63
9141;BME280;46330;50.822;7.126;2023-05-08T12:07:41;101447.47;;;16.88;95.33
9141;BME280;46330;50.822;7.126;2023-05-08T12:10:10;101458.19;;;17.11;93.68
9141;BME280;46330;50.822;7.126;2023-05-08T12:12:39;101451.00;;;17.41;93.13
9141;BME280;46330;50.822;7.126;2023-05-08T12:15:10;101447.75;;;17.33;91.47
9141;BME280;46330;50.822;7.126;2023-05-08T12:17:39;101448.31;;;17.42;90.33
9141;BME280;46330;50.822;7.126;2023-05-08T12:20:11;101449.47;;;17.60;90.87
9141;BME280;46330;50.822;7.126;2023-05-08T12:22:42;101444.44;;;17.52;88.64
9141;BME280;46330;50.822;7.126;2023-05-08T12:25:16;101441.06;;;17.47;88.65
9141;BME280;46330;50.822;7.126;2023-05-08T12:27:45;101448.41;;;17.39;89.95
9141;BME280;46330;50.822;7.126;2023-05-08T12:30:15;101439.44;;;17.69;87.55
9141;BME280;46330;50.822;7.126;2023-05-08T12:32:45;101447.19;;;17.99;86.09
9141;BME280;46330;50.822;7.126;2023-05-08T12:35:13;101461.34;;;17.47;87.62
9141;BME280;46330;50.822;7.126;2023-05-08T12:37:44;101455.69;;;17.59;89.16
9141;BME280;46330;50.822;7.126;2023-05-08T12:40:24;101461.09;;;17.81;87.63
9141;BME280;46330;50.822;7.126;2023-05-08T12:42:52;101450.41;;;17.84;88.31
9141;BME280;46330;50.822;7.126;2023-05-08T12:45:23;101442.81;;;17.98;87.57
9141;BME280;46330;50.822;7.126;2023-05-08T12:47:53;101448.06;;;17.99;85.99
9141;BME280;46330;50.822;7.126;2023-05-08T12:50:25;101442.78;;;17.75;87.34
9141;BME280;46330;50.822;7.126;2023-05-08T12:52:53;101445.94;;;17.84;86.08
9141;BME280;46330;50.822;7.126;2023-05-08T12:55:22;101448.66;;;18.06;85.51
9141;BME280;46330;50.822;7.126;2023-05-08T12:57:58;101441.91;;;18.44;85.24
9141;BME280;46330;50.822;7.126;2023-05-08T13:00:35;101439.81;;;18.30;84.65
9141;BME280;46330;50.822;7.126;2023-05-08T13:03:04;101431.25;;;18.68;83.25
9141;BME280;46330;50.822;7.126;2023-05-08T13:05:34;101434.38;;;18.56;83.00
9141;BME280;46330;50.822;7.126;2023-05-08T13:08:04;101431.25;;;18.23;85.85
9141;BME280;46330;50.822;7.126;2023-05-08T13:10:45;101428.28;;;18.31;83.45
9141;BME280;46330;50.822;7.126;2023-05-08T13:13:15;101420.06;;;18.39;82.45
9141;BME280;46330;50.822;7.126;2023-05-08T13:15:46;101416.50;;;19.05;80.17
9141;BME280;46330;50.822;7.126;2023-05-08T13:18:14;101412.94;;;19.26;78.83